sensor_id;sensor_type;location;lat;lon;timestamp;P1;durP1;ratioP1;P2;durP2;ratioP2
2001;SDS011;1003;48.002;7.788;2023-02-28T00:01:22;4.63;;;3.07;;
2001;SDS011;1003;48.002;7.788;2023-02-28T00:03:50;3.33;;;2.60;;
2001;SDS011;1003;48.002;7.788;2023-02-28T00:06:17;3.97;;;2.70;;
2001;SDS011;1003;48.002;7.788;2023-02-28T00:08:45;2.97;;;2.43;;
2001;SDS011;1003;48.002;7.788;2023-02-28T00:11:13;4.20;;;2.77;;
2001;SDS011;1003;48.002;7.788;2023-02-28T00:13:42;3.77;;;2.70;;
2001;SDS011;1003;48.002;7.788;2023-02-28T00:16:14;2.83;;;2.60;;
2001;SDS011;1003;48.002;7.788;2023-02-28T00:18:43;2.87;;;2.10;;
2001;SDS011;1003;48.002;7.788;2023-02-28T00:21:12;6.00;;;2.80;;
2001;SDS011;1003;48.002;7.788;2023-02-28T00:23:39;3.80;;;2.80;;
2001;SDS011;1003;48.002;7.788;2023-02-28T00:26:06;3.20;;;2.37;;
2001;SDS011;1003;48.002;7.788;2023-02-28T00:28:33;4.57;;;2.70;;
2001;SDS011;1003;48.002;7.788;2023-02-28T00:31:01;2.70;;;2.40;;
2001;SDS011;1003;48.002;7.788;2023-02-28T00:33:30;4.43;;;2.77;;
2001;SDS011;1003;48.002;7.788;2023-02-28T00:36:04;2.67;;;2.47;;
2001;SDS011;1003;48.002;7.788;2023-02-28T00:38:33;3.97;;;2.90;;
2001;SDS011;1003;48.002;7.788;2023-02-28T00:41:01;3.83;;;2.67;;
2001;SDS011;1003;48.002;7.788;2023-02-28T00:43:30;3.23;;;2.93;;
2001;SDS011;1003;48.002;7.788;2023-02-28T00:45:58;4.60;;;2.80;;
2001;SDS011;1003;48.002;7.788;2023-02-28T00:48:25;5.03;;;2.93;;
2001;SDS011;1003;48.002;7.788;2023-02-28T00:50:54;5.73;;;3.30;;
2001;SDS011;1003;48.002;7.788;2023-02-28T00:53:21;4.87;;;2.90;;
2001;SDS011;1003;48.002;7.788;2023-02-28T00:55:48;3.80;;;3.07;;
2001;SDS011;1003;48.002;7.788;2023-02-28T00:58:15;4.40;;;2.83;;
2001;SDS011;1003;48.002;7.788;2023-02-28T01:00:43;4.20;;;3.00;;
2001;SDS011;1003;48.002;7.788;2023-02-28T01:03:14;5.00;;;3.00;;
2001;SDS011;1003;48.002;7.788;2023-02-28T01:05:42;4.67;;;3.00;;
2001;SDS011;1003;48.002;7.788;2023-02-28T01:08:11;5.40;;;3.10;;
2001;SDS011;1003;48.002;7.788;2023-02-28T01:10:39;3.53;;;2.80;;
2001;SDS011;1003;48.002;7.788;2023-02-28T01:13:07;6.17;;;3.13;;
2001;SDS011;1003;48.002;7.788;2023-02-28T01:15:34;3.60;;;2.77;;
2001;SDS011;1003;48.002;7.788;2023-02-28T01:18:01;4.37;;;3.10;;
2001;SDS011;1003;48.002;7.788;2023-02-28T01:20:28;3.27;;;2.87;;
2001;SDS011;1003;48.002;7.788;2023-02-28T01:22:55;5.33;;;3.00;;
2001;SDS011;1003;48.002;7.788;2023-02-28T01:25:24;3.60;;;2.90;;
2001;SDS011;1003;48.002;7.788;2023-02-28T01:27:51;4.03;;;2.87;;
2001;SDS011;1003;48.002;7.788;2023-02-28T01:30:18;3.87;;;3.00;;
2001;SDS011;1003;48.002;7.788;2023-02-28T01:32:45;4.40;;;3.03;;
2001;SDS011;1003;48.002;7.788;2023-02-28T01:35:12;3.60;;;2.70;;
2001;SDS011;1003;48.002;7.788;2023-02-28T01:37:39;5.13;;;3.10;;
2001;SDS011;1003;48.002;7.788;2023-02-28T01:40:07;3.60;;;3.00;;
2001;SDS011;1003;48.002;7.788;2023-02-28T01:42:38;5.53;;;3.30;;
2001;SDS011;1003;48.002;7.788;2023-02-28T01:45:14;5.07;;;3.10;;
2001;SDS011;1003;48.002;7.788;2023-02-28T01:47:49;4.97;;;3.20;;
2001;SDS011;1003;48.002;7.788;2023-02-28T01:50:21;3.73;;;3.13;;
2001;SDS011;1003;48.002;7.788;2023-02-28T01:52:52;4.93;;;3.30;;
2001;SDS011;1003;48.002;7.788;2023-02-28T01:55:25;4.80;;;3.20;;
2001;SDS011;1003;48.002;7.788;2023-02-28T01:57:57;4.80;;;3.00;;
2001;SDS011;1003;48.002;7.788;2023-02-28T02:00:28;5.50;;;3.00;;
2001;SDS011;1003;48.002;7.788;2023-02-28T02:02:58;4.23;;;3.20;;
2001;SDS011;1003;48.002;7.788;2023-02-28T02:05:31;5.30;;;2.80;;
2001;SDS011;1003;48.002;7.788;2023-02-28T02:08:01;3.10;;;2.80;;
2001;SDS011;1003;48.002;7.788;2023-02-28T02:10:33;4.43;;;3.20;;
2001;SDS011;1003;48.002;7.788;2023-02-28T02:13:10;3.70;;;2.90;;
2001;SDS011;1003;48.002;7.788;2023-02-28T02:15:56;3.47;;;2.90;;
2001;SDS011;1003;48.002;7.788;2023-02-28T02:18:37;5.03;;;3.37;;
2001;SDS011;1003;48.002;7.788;2023-02-28T02:27:39;4.63;;;3.03;;
2001;SDS011;1003;48.002;7.788;2023-02-28T02:30:44;5.97;;;3.37;;
2001;SDS011;1003;48.002;7.788;2023-02-28T02:36:58;3.67;;;2.97;;
2001;SDS011;1003;48.002;7.788;2023-02-28T02:39:39;4.33;;;3.10;;
2001;SDS011;1003;48.002;7.788;2023-02-28T02:42:19;4.23;;;2.90;;
2001;SDS011;1003;48.002;7.788;2023-02-28T02:44:55;4.87;;;3.37;;
2001;SDS011;1003;48.002;7.788;2023-02-28T02:47:31;4.53;;;3.30;;
2001;SDS011;1003;48.002;7.788;2023-02-28T02:50:04;6.37;;;3.23;;
2001;SDS011;1003;48.002;7.788;2023-02-28T02:52:38;5.87;;;3.30;;
2001;SDS011;1003;48.002;7.788;2023-02-28T02:55:12;5.13;;;3.43;;
2001;SDS011;1003;48.002;7.788;2023-02-28T02:57:44;5.03;;;3.37;;
2001;SDS011;1003;48.002;7.788;2023-02-28T03:00:16;5.20;;;3.50;;
2001;SDS011;1003;48.002;7.788;2023-02-28T03:02:49;5.63;;;3.20;;
2001;SDS011;1003;48.002;7.788;2023-02-28T03:05:23;6.77;;;3.53;;
2001;SDS011;1003;48.002;7.788;2023-02-28T03:07:58;5.10;;;3.57;;
2001;SDS011;1003;48.002;7.788;2023-02-28T03:10:34;6.87;;;3.50;;
2001;SDS011;1003;48.002;7.788;2023-02-28T03:16:28;6.13;;;3.50;;
2001;SDS011;1003;48.002;7.788;2023-02-28T03:19:19;6.33;;;3.70;;
2001;SDS011;1003;48.002;7.788;2023-02-28T03:22:10;4.27;;;3.20;;
2001;SDS011;1003;48.002;7.788;2023-02-28T03:25:00;5.23;;;3.30;;
2001;SDS011;1003;48.002;7.788;2023-02-28T03:27:36;3.70;;;3.13;;
2001;SDS011;1003;48.002;7.788;2023-02-28T03:30:10;5.77;;;3.30;;
2001;SDS011;1003;48.002;7.788;2023-02-28T03:32:50;5.30;;;3.13;;
2001;SDS011;1003;48.002;7.788;2023-02-28T03:35:25;5.27;;;3.13;;
2001;SDS011;1003;48.002;7.788;2023-02-28T03:38:00;4.73;;;3.17;;
2001;SDS011;1003;48.002;7.788;2023-02-28T03:40:39;4.40;;;3.30;;
2001;SDS011;1003;48.002;7.788;2023-02-28T03:43:12;3.53;;;2.97;;
2001;SDS011;1003;48.002;7.788;2023-02-28T03:45:47;4.73;;;2.80;;
2001;SDS011;1003;48.002;7.788;2023-02-28T03:48:18;4.80;;;3.50;;
2001;SDS011;1003;48.002;7.788;2023-02-28T03:50:51;4.77;;;3.00;;
2001;SDS011;1003;48.002;7.788;2023-02-28T03:53:27;4.50;;;3.00;;
2001;SDS011;1003;48.002;7.788;2023-02-28T03:55:59;4.90;;;2.70;;
2001;SDS011;1003;48.002;7.788;2023-02-28T03:58:38;4.60;;;3.33;;
2001;SDS011;1003;48.002;7.788;2023-02-28T04:01:15;5.03;;;3.30;;
2001;SDS011;1003;48.002;7.788;2023-02-28T04:03:49;5.37;;;3.13;;
2001;SDS011;1003;48.002;7.788;2023-02-28T04:06:17;7.10;;;3.30;;
2001;SDS011;1003;48.002;7.788;2023-02-28T04:08:49;6.20;;;3.20;;
2001;SDS011;1003;48.002;7.788;2023-02-28T04:11:18;4.73;;;3.20;;
2001;SDS011;1003;48.002;7.788;2023-02-28T04:13:49;4.23;;;3.07;;
2001;SDS011;1003;48.002;7.788;2023-02-28T04:16:16;3.13;;;2.83;;
2001;SDS011;1003;48.002;7.788;2023-02-28T04:18:44;5.03;;;3.00;;
2001;SDS011;1003;48.002;7.788;2023-02-28T04:21:11;4.17;;;3.30;;
2001;SDS011;1003;48.002;7.788;2023-02-28T04:23:39;4.40;;;3.13;;
2001;SDS011;1003;48.002;7.788;2023-02-28T04:26:07;4.20;;;3.10;;
2001;SDS011;1003;48.002;7.788;2023-02-28T04:28:34;5.17;;;2.93;;
2001;SDS011;1003;48.002;7.788;2023-02-28T04:31:04;3.90;;;3.17;;
2001;SDS011;1003;48.002;7.788;2023-02-28T04:33:32;4.83;;;3.10;;
2001;SDS011;1003;48.002;7.788;2023-02-28T04:35:59;6.03;;;3.43;;
2001;SDS011;1003;48.002;7.788;2023-02-28T04:38:29;4.17;;;2.87;;
2001;SDS011;1003;48.002;7.788;2023-02-28T04:40:58;5.27;;;3.00;;
2001;SDS011;1003;48.002;7.788;2023-02-28T04:43:27;5.03;;;3.20;;
2001;SDS011;1003;48.002;7.788;2023-02-28T04:45:56;5.23;;;3.17;;
2001;SDS011;1003;48.002;7.788;2023-02-28T04:48:27;4.63;;;2.80;;
2001;SDS011;1003;48.002;7.788;2023-02-28T04:50:59;4.77;;;3.20;;
2001;SDS011;1003;48.002;7.788;2023-02-28T04:53:27;5.80;;;3.60;;
2001;SDS011;1003;48.002;7.788;2023-02-28T04:55:55;4.93;;;3.40;;
2001;SDS011;1003;48.002;7.788;2023-02-28T04:58:23;4.83;;;3.37;;
2001;SDS011;1003;48.002;7.788;2023-02-28T05:00:52;5.60;;;3.50;;
2001;SDS011;1003;48.002;7.788;2023-02-28T05:03:20;7.30;;;3.60;;
2001;SDS011;1003;48.002;7.788;2023-02-28T05:05:47;6.63;;;3.37;;
2001;SDS011;1003;48.002;7.788;2023-02-28T05:08:14;5.30;;;3.53;;
2001;SDS011;1003;48.002;7.788;2023-02-28T05:10:41;6.17;;;3.43;;
2001;SDS011;1003;48.002;7.788;2023-02-28T05:13:09;5.93;;;3.47;;
2001;SDS011;1003;48.002;7.788;2023-02-28T05:15:38;5.03;;;3.70;;
2001;SDS011;1003;48.002;7.788;2023-02-28T05:18:07;5.23;;;3.50;;
2001;SDS011;1003;48.002;7.788;2023-02-28T05:20:35;3.97;;;3.17;;
2001;SDS011;1003;48.002;7.788;2023-02-28T05:23:02;5.83;;;3.20;;
2001;SDS011;1003;48.002;7.788;2023-02-28T05:25:29;5.73;;;3.53;;
2001;SDS011;1003;48.002;7.788;2023-02-28T05:27:56;4.20;;;3.10;;
2001;SDS011;1003;48.002;7.788;2023-02-28T05:30:24;7.77;;;3.43;;
2001;SDS011;1003;48.002;7.788;2023-02-28T05:32:51;5.10;;;3.37;;
2001;SDS011;1003;48.002;7.788;2023-02-28T05:35:19;5.90;;;3.60;;
2001;SDS011;1003;48.002;7.788;2023-02-28T05:37:47;6.27;;;3.40;;
2001;SDS011;1003;48.002;7.788;2023-02-28T05:40:14;5.70;;;3.67;;
2001;SDS011;1003;48.002;7.788;2023-02-28T05:42:41;4.60;;;3.20;;
2001;SDS011;1003;48.002;7.788;2023-02-28T05:45:09;5.73;;;3.37;;
2001;SDS011;1003;48.002;7.788;2023-02-28T05:47:37;5.00;;;3.73;;
2001;SDS011;1003;48.002;7.788;2023-02-28T05:50:04;6.43;;;3.80;;
2001;SDS011;1003;48.002;7.788;2023-02-28T05:52:35;4.50;;;3.70;;
2001;SDS011;1003;48.002;7.788;2023-02-28T05:55:03;5.80;;;3.70;;
2001;SDS011;1003;48.002;7.788;2023-02-28T05:57:32;4.83;;;3.60;;
2001;SDS011;1003;48.002;7.788;2023-02-28T05:59:59;5.83;;;3.90;;
2001;SDS011;1003;48.002;7.788;2023-02-28T06:02:26;5.17;;;3.77;;
2001;SDS011;1003;48.002;7.788;2023-02-28T06:04:53;5.23;;;3.60;;
2001;SDS011;1003;48.002;7.788;2023-02-28T06:07:20;6.90;;;3.90;;
2001;SDS011;1003;48.002;7.788;2023-02-28T06:09:49;4.83;;;3.83;;
2001;SDS011;1003;48.002;7.788;2023-02-28T06:12:16;6.90;;;4.33;;
2001;SDS011;1003;48.002;7.788;2023-02-28T06:14:43;5.93;;;3.90;;
2001;SDS011;1003;48.002;7.788;2023-02-28T06:17:10;6.30;;;4.03;;
2001;SDS011;1003;48.002;7.788;2023-02-28T06:19:37;9.33;;;4.80;;
2001;SDS011;1003;48.002;7.788;2023-02-28T06:22:06;6.70;;;4.10;;
2001;SDS011;1003;48.002;7.788;2023-02-28T06:24:33;7.53;;;4.00;;
2001;SDS011;1003;48.002;7.788;2023-02-28T06:27:02;5.60;;;3.77;;
2001;SDS011;1003;48.002;7.788;2023-02-28T06:29:30;5.97;;;4.10;;
2001;SDS011;1003;48.002;7.788;2023-02-28T06:31:58;6.13;;;4.23;;
2001;SDS011;1003;48.002;7.788;2023-02-28T06:34:26;5.73;;;4.37;;
2001;SDS011;1003;48.002;7.788;2023-02-28T06:36:53;7.37;;;4.40;;
2001;SDS011;1003;48.002;7.788;2023-02-28T06:39:20;8.70;;;4.80;;
2001;SDS011;1003;48.002;7.788;2023-02-28T06:41:47;6.37;;;4.57;;
2001;SDS011;1003;48.002;7.788;2023-02-28T06:44:17;7.07;;;4.60;;
2001;SDS011;1003;48.002;7.788;2023-02-28T06:46:45;7.47;;;5.17;;
2001;SDS011;1003;48.002;7.788;2023-02-28T06:49:12;6.23;;;4.87;;
2001;SDS011;1003;48.002;7.788;2023-02-28T06:51:41;6.80;;;4.83;;
2001;SDS011;1003;48.002;7.788;2023-02-28T06:54:10;5.90;;;4.60;;
2001;SDS011;1003;48.002;7.788;2023-02-28T06:56:39;11.20;;;5.00;;
2001;SDS011;1003;48.002;7.788;2023-02-28T06:59:06;6.27;;;4.30;;
2001;SDS011;1003;48.002;7.788;2023-02-28T07:01:34;15.70;;;6.63;;
2001;SDS011;1003;48.002;7.788;2023-02-28T07:04:02;7.20;;;4.40;;
2001;SDS011;1003;48.002;7.788;2023-02-28T07:06:31;6.43;;;4.17;;
2001;SDS011;1003;48.002;7.788;2023-02-28T07:08:58;7.90;;;4.87;;
2001;SDS011;1003;48.002;7.788;2023-02-28T07:11:26;10.00;;;4.60;;
2001;SDS011;1003;48.002;7.788;2023-02-28T07:13:54;7.77;;;5.00;;
2001;SDS011;1003;48.002;7.788;2023-02-28T07:16:23;7.37;;;5.00;;
2001;SDS011;1003;48.002;7.788;2023-02-28T07:18:53;7.63;;;4.87;;
2001;SDS011;1003;48.002;7.788;2023-02-28T07:21:21;8.43;;;4.70;;
2001;SDS011;1003;48.002;7.788;2023-02-28T07:23:48;9.80;;;5.10;;
2001;SDS011;1003;48.002;7.788;2023-02-28T07:26:16;7.97;;;4.80;;
2001;SDS011;1003;48.002;7.788;2023-02-28T07:28:46;7.67;;;4.97;;
2001;SDS011;1003;48.002;7.788;2023-02-28T07:31:15;6.77;;;4.63;;
2001;SDS011;1003;48.002;7.788;2023-02-28T07:33:43;7.57;;;4.27;;
2001;SDS011;1003;48.002;7.788;2023-02-28T07:36:13;7.10;;;4.50;;
2001;SDS011;1003;48.002;7.788;2023-02-28T07:38:43;6.10;;;4.27;;
2001;SDS011;1003;48.002;7.788;2023-02-28T07:41:13;6.77;;;4.77;;
2001;SDS011;1003;48.002;7.788;2023-02-28T07:43:40;8.57;;;4.53;;
2001;SDS011;1003;48.002;7.788;2023-02-28T07:46:08;8.63;;;5.33;;
2001;SDS011;1003;48.002;7.788;2023-02-28T07:48:37;6.07;;;4.30;;
2001;SDS011;1003;48.002;7.788;2023-02-28T07:51:04;7.27;;;4.77;;
2001;SDS011;1003;48.002;7.788;2023-02-28T07:53:33;5.33;;;4.10;;
2001;SDS011;1003;48.002;7.788;2023-02-28T07:56:01;6.97;;;4.53;;
2001;SDS011;1003;48.002;7.788;2023-02-28T07:58:28;6.60;;;4.00;;
2001;SDS011;1003;48.002;7.788;2023-02-28T08:00:56;7.53;;;4.20;;
2001;SDS011;1003;48.002;7.788;2023-02-28T08:03:30;6.60;;;4.10;;
2001;SDS011;1003;48.002;7.788;2023-02-28T08:05:57;5.67;;;4.47;;
2001;SDS011;1003;48.002;7.788;2023-02-28T08:08:24;6.67;;;4.23;;
2001;SDS011;1003;48.002;7.788;2023-02-28T08:10:57;7.20;;;5.30;;
2001;SDS011;1003;48.002;7.788;2023-02-28T08:13:25;6.53;;;4.87;;
2001;SDS011;1003;48.002;7.788;2023-02-28T08:15:53;5.90;;;4.10;;
2001;SDS011;1003;48.002;7.788;2023-02-28T08:18:20;7.07;;;4.60;;
2001;SDS011;1003;48.002;7.788;2023-02-28T08:20:48;6.80;;;4.50;;
2001;SDS011;1003;48.002;7.788;2023-02-28T08:23:15;7.27;;;4.63;;
2001;SDS011;1003;48.002;7.788;2023-02-28T08:25:42;7.37;;;4.73;;
2001;SDS011;1003;48.002;7.788;2023-02-28T08:28:11;7.93;;;4.63;;
2001;SDS011;1003;48.002;7.788;2023-02-28T08:30:38;10.30;;;5.90;;
2001;SDS011;1003;48.002;7.788;2023-02-28T08:33:06;8.80;;;5.27;;
2001;SDS011;1003;48.002;7.788;2023-02-28T08:35:35;7.20;;;4.43;;
2001;SDS011;1003;48.002;7.788;2023-02-28T08:38:02;8.03;;;5.57;;
2001;SDS011;1003;48.002;7.788;2023-02-28T08:40:30;7.97;;;6.10;;
2001;SDS011;1003;48.002;7.788;2023-02-28T08:42:57;9.60;;;4.43;;
2001;SDS011;1003;48.002;7.788;2023-02-28T08:45:26;6.93;;;4.63;;
2001;SDS011;1003;48.002;7.788;2023-02-28T08:47:53;9.07;;;5.00;;
2001;SDS011;1003;48.002;7.788;2023-02-28T08:50:20;7.43;;;4.60;;
2001;SDS011;1003;48.002;7.788;2023-02-28T08:52:48;7.50;;;4.90;;
2001;SDS011;1003;48.002;7.788;2023-02-28T08:55:15;7.47;;;4.47;;
2001;SDS011;1003;48.002;7.788;2023-02-28T08:57:42;8.93;;;5.20;;
2001;SDS011;1003;48.002;7.788;2023-02-28T09:00:10;8.17;;;4.90;;
2001;SDS011;1003;48.002;7.788;2023-02-28T09:02:40;6.97;;;4.47;;
2001;SDS011;1003;48.002;7.788;2023-02-28T09:05:08;7.17;;;4.40;;
2001;SDS011;1003;48.002;7.788;2023-02-28T09:07:36;7.50;;;4.80;;
2001;SDS011;1003;48.002;7.788;2023-02-28T09:10:03;10.43;;;5.97;;
2001;SDS011;1003;48.002;7.788;2023-02-28T09:12:32;8.20;;;5.03;;
2001;SDS011;1003;48.002;7.788;2023-02-28T09:15:00;8.57;;;5.00;;
2001;SDS011;1003;48.002;7.788;2023-02-28T09:17:28;10.00;;;5.30;;
2001;SDS011;1003;48.002;7.788;2023-02-28T09:19:56;7.60;;;5.20;;
2001;SDS011;1003;48.002;7.788;2023-02-28T09:22:24;8.17;;;4.97;;
2001;SDS011;1003;48.002;7.788;2023-02-28T09:24:51;7.67;;;5.20;;
2001;SDS011;1003;48.002;7.788;2023-02-28T09:27:18;10.33;;;6.40;;
2001;SDS011;1003;48.002;7.788;2023-02-28T09:29:45;7.60;;;4.80;;
2001;SDS011;1003;48.002;7.788;2023-02-28T09:32:12;8.80;;;5.57;;
2001;SDS011;1003;48.002;7.788;2023-02-28T09:34:39;8.57;;;5.40;;
2001;SDS011;1003;48.002;7.788;2023-02-28T09:37:07;8.77;;;5.83;;
2001;SDS011;1003;48.002;7.788;2023-02-28T09:39:34;10.53;;;6.57;;
2001;SDS011;1003;48.002;7.788;2023-02-28T09:42:02;10.30;;;6.83;;
2001;SDS011;1003;48.002;7.788;2023-02-28T09:44:34;8.40;;;5.07;;
2001;SDS011;1003;48.002;7.788;2023-02-28T09:47:06;8.30;;;4.93;;
2001;SDS011;1003;48.002;7.788;2023-02-28T09:49:44;7.87;;;5.00;;
2001;SDS011;1003;48.002;7.788;2023-02-28T09:52:16;7.60;;;5.27;;
2001;SDS011;1003;48.002;7.788;2023-02-28T09:54:51;7.37;;;5.10;;
2001;SDS011;1003;48.002;7.788;2023-02-28T09:57:19;7.77;;;5.07;;
2001;SDS011;1003;48.002;7.788;2023-02-28T10:00:06;10.60;;;6.60;;
2001;SDS011;1003;48.002;7.788;2023-02-28T10:05:43;8.53;;;5.47;;
2001;SDS011;1003;48.002;7.788;2023-02-28T10:08:21;9.43;;;5.10;;
2001;SDS011;1003;48.002;7.788;2023-02-28T10:10:54;8.17;;;5.13;;
2001;SDS011;1003;48.002;7.788;2023-02-28T10:13:25;8.00;;;5.10;;
2001;SDS011;1003;48.002;7.788;2023-02-28T10:16:01;8.37;;;5.53;;
2001;SDS011;1003;48.002;7.788;2023-02-28T10:18:38;7.73;;;5.27;;
2001;SDS011;1003;48.002;7.788;2023-02-28T10:21:17;8.77;;;5.43;;
2001;SDS011;1003;48.002;7.788;2023-02-28T10:23:55;7.90;;;5.20;;
2001;SDS011;1003;48.002;7.788;2023-02-28T10:26:31;7.90;;;5.33;;
2001;SDS011;1003;48.002;7.788;2023-02-28T10:28:59;7.87;;;5.53;;
2001;SDS011;1003;48.002;7.788;2023-02-28T10:31:27;8.50;;;5.20;;
2001;SDS011;1003;48.002;7.788;2023-02-28T10:33:55;9.03;;;5.73;;
2001;SDS011;1003;48.002;7.788;2023-02-28T10:36:22;9.03;;;5.93;;
2001;SDS011;1003;48.002;7.788;2023-02-28T10:38:50;7.80;;;5.37;;
2001;SDS011;1003;48.002;7.788;2023-02-28T10:41:26;9.90;;;5.97;;
2001;SDS011;1003;48.002;7.788;2023-02-28T10:44:13;8.97;;;5.13;;
2001;SDS011;1003;48.002;7.788;2023-02-28T10:46:46;8.20;;;5.37;;
2001;SDS011;1003;48.002;7.788;2023-02-28T10:49:17;7.97;;;5.03;;
2001;SDS011;1003;48.002;7.788;2023-02-28T10:51:49;7.70;;;5.37;;
2001;SDS011;1003;48.002;7.788;2023-02-28T10:54:22;8.47;;;5.33;;
2001;SDS011;1003;48.002;7.788;2023-02-28T10:57:06;9.30;;;5.10;;
2001;SDS011;1003;48.002;7.788;2023-02-28T10:59:40;6.83;;;5.13;;
2001;SDS011;1003;48.002;7.788;2023-02-28T11:02:29;7.50;;;5.47;;
2001;SDS011;1003;48.002;7.788;2023-02-28T11:04:59;8.00;;;5.00;;
2001;SDS011;1003;48.002;7.788;2023-02-28T11:07:27;7.47;;;5.20;;
2001;SDS011;1003;48.002;7.788;2023-02-28T11:09:55;8.57;;;5.37;;
2001;SDS011;1003;48.002;7.788;2023-02-28T11:12:27;8.47;;;5.33;;
2001;SDS011;1003;48.002;7.788;2023-02-28T11:15:03;6.70;;;4.87;;
2001;SDS011;1003;48.002;7.788;2023-02-28T11:17:52;8.67;;;5.53;;
2001;SDS011;1003;48.002;7.788;2023-02-28T11:20:21;7.57;;;5.07;;
2001;SDS011;1003;48.002;7.788;2023-02-28T11:22:52;7.93;;;5.20;;
2001;SDS011;1003;48.002;7.788;2023-02-28T11:25:23;7.17;;;5.33;;
2001;SDS011;1003;48.002;7.788;2023-02-28T11:27:56;7.63;;;5.17;;
2001;SDS011;1003;48.002;7.788;2023-02-28T11:30:30;7.60;;;4.80;;
2001;SDS011;1003;48.002;7.788;2023-02-28T11:35:55;7.50;;;5.23;;
2001;SDS011;1003;48.002;7.788;2023-02-28T11:38:27;8.20;;;5.10;;
2001;SDS011;1003;48.002;7.788;2023-02-28T11:41:13;8.90;;;5.77;;
2001;SDS011;1003;48.002;7.788;2023-02-28T11:44:04;7.87;;;5.43;;
2001;SDS011;1003;48.002;7.788;2023-02-28T11:46:50;8.07;;;5.20;;
2001;SDS011;1003;48.002;7.788;2023-02-28T11:49:23;8.07;;;5.37;;
2001;SDS011;1003;48.002;7.788;2023-02-28T11:52:05;7.63;;;5.27;;
2001;SDS011;1003;48.002;7.788;2023-02-28T11:57:52;9.10;;;5.30;;
2001;SDS011;1003;48.002;7.788;2023-02-28T12:03:54;8.50;;;5.40;;
2001;SDS011;1003;48.002;7.788;2023-02-28T12:06:31;7.27;;;5.37;;
2001;SDS011;1003;48.002;7.788;2023-02-28T12:09:13;9.70;;;5.70;;
2001;SDS011;1003;48.002;7.788;2023-02-28T12:12:06;7.87;;;5.60;;
2001;SDS011;1003;48.002;7.788;2023-02-28T12:14:54;8.53;;;5.87;;
2001;SDS011;1003;48.002;7.788;2023-02-28T12:18:08;8.67;;;5.67;;
2001;SDS011;1003;48.002;7.788;2023-02-28T12:21:00;8.80;;;5.87;;
2001;SDS011;1003;48.002;7.788;2023-02-28T12:23:43;8.27;;;5.80;;
2001;SDS011;1003;48.002;7.788;2023-02-28T12:26:30;10.00;;;6.10;;
2001;SDS011;1003;48.002;7.788;2023-02-28T12:29:07;9.50;;;5.63;;
2001;SDS011;1003;48.002;7.788;2023-02-28T12:31:45;8.67;;;5.90;;
2001;SDS011;1003;48.002;7.788;2023-02-28T12:34:20;8.30;;;5.80;;
2001;SDS011;1003;48.002;7.788;2023-02-28T12:36:54;9.67;;;5.70;;
2001;SDS011;1003;48.002;7.788;2023-02-28T12:39:28;8.70;;;5.37;;
2001;SDS011;1003;48.002;7.788;2023-02-28T12:42:02;8.17;;;5.63;;
2001;SDS011;1003;48.002;7.788;2023-02-28T12:44:39;8.83;;;5.70;;
2001;SDS011;1003;48.002;7.788;2023-02-28T12:47:15;7.67;;;5.63;;
2001;SDS011;1003;48.002;7.788;2023-02-28T12:49:46;8.33;;;5.33;;
2001;SDS011;1003;48.002;7.788;2023-02-28T12:52:23;8.47;;;6.00;;
2001;SDS011;1003;48.002;7.788;2023-02-28T12:55:03;8.23;;;5.83;;
2001;SDS011;1003;48.002;7.788;2023-02-28T12:57:42;9.30;;;5.93;;
2001;SDS011;1003;48.002;7.788;2023-02-28T13:00:22;10.43;;;6.00;;
2001;SDS011;1003;48.002;7.788;2023-02-28T13:09:19;9.77;;;6.07;;
2001;SDS011;1003;48.002;7.788;2023-02-28T13:11:47;9.17;;;5.77;;
2001;SDS011;1003;48.002;7.788;2023-02-28T13:14:19;12.13;;;7.43;;
2001;SDS011;1003;48.002;7.788;2023-02-28T13:16:55;8.50;;;5.57;;
2001;SDS011;1003;48.002;7.788;2023-02-28T13:19:27;9.50;;;6.20;;
2001;SDS011;1003;48.002;7.788;2023-02-28T13:21:59;10.33;;;6.17;;
2001;SDS011;1003;48.002;7.788;2023-02-28T13:27:24;9.43;;;5.87;;
2001;SDS011;1003;48.002;7.788;2023-02-28T13:33:28;9.07;;;5.80;;
2001;SDS011;1003;48.002;7.788;2023-02-28T13:36:10;8.87;;;5.53;;
2001;SDS011;1003;48.002;7.788;2023-02-28T13:38:53;10.57;;;6.37;;
2001;SDS011;1003;48.002;7.788;2023-02-28T13:44:12;8.67;;;5.53;;
2001;SDS011;1003;48.002;7.788;2023-02-28T13:52:48;7.27;;;5.60;;
2001;SDS011;1003;48.002;7.788;2023-02-28T13:55:30;9.23;;;6.00;;
2001;SDS011;1003;48.002;7.788;2023-02-28T13:58:08;10.27;;;6.50;;
2001;SDS011;1003;48.002;7.788;2023-02-28T14:01:08;8.80;;;5.87;;
2001;SDS011;1003;48.002;7.788;2023-02-28T14:07:06;20.80;;;12.97;;
2001;SDS011;1003;48.002;7.788;2023-02-28T14:09:44;18.00;;;12.57;;
2001;SDS011;1003;48.002;7.788;2023-02-28T14:15:30;14.63;;;9.00;;
2001;SDS011;1003;48.002;7.788;2023-02-28T14:21:02;10.27;;;6.83;;
2001;SDS011;1003;48.002;7.788;2023-02-28T14:23:44;13.87;;;7.33;;
2001;SDS011;1003;48.002;7.788;2023-02-28T14:27:08;12.87;;;7.70;;
2001;SDS011;1003;48.002;7.788;2023-02-28T14:30:32;11.97;;;7.00;;
2001;SDS011;1003;48.002;7.788;2023-02-28T14:33:24;13.90;;;7.67;;
2001;SDS011;1003;48.002;7.788;2023-02-28T14:36:04;11.40;;;6.70;;
2001;SDS011;1003;48.002;7.788;2023-02-28T14:38:40;11.70;;;6.83;;
2001;SDS011;1003;48.002;7.788;2023-02-28T14:41:15;10.63;;;6.77;;
2001;SDS011;1003;48.002;7.788;2023-02-28T14:43:49;10.63;;;6.70;;
2001;SDS011;1003;48.002;7.788;2023-02-28T14:46:24;9.37;;;6.13;;
2001;SDS011;1003;48.002;7.788;2023-02-28T14:48:59;10.93;;;6.97;;
2001;SDS011;1003;48.002;7.788;2023-02-28T14:51:26;10.03;;;6.70;;
2001;SDS011;1003;48.002;7.788;2023-02-28T14:53:56;10.53;;;7.10;;
2001;SDS011;1003;48.002;7.788;2023-02-28T14:56:26;10.93;;;6.77;;
2001;SDS011;1003;48.002;7.788;2023-02-28T14:59:00;13.70;;;7.73;;
2001;SDS011;1003;48.002;7.788;2023-02-28T15:01:28;11.70;;;6.90;;
2001;SDS011;1003;48.002;7.788;2023-02-28T15:03:57;10.33;;;6.90;;
2001;SDS011;1003;48.002;7.788;2023-02-28T15:06:28;10.93;;;7.13;;
2001;SDS011;1003;48.002;7.788;2023-02-28T15:09:10;12.93;;;7.50;;
2001;SDS011;1003;48.002;7.788;2023-02-28T15:11:44;16.23;;;8.53;;
2001;SDS011;1003;48.002;7.788;2023-02-28T15:14:15;13.33;;;8.00;;
2001;SDS011;1003;48.002;7.788;2023-02-28T15:16:48;10.50;;;6.80;;
2001;SDS011;1003;48.002;7.788;2023-02-28T15:19:24;12.43;;;7.67;;
2001;SDS011;1003;48.002;7.788;2023-02-28T15:21:56;13.40;;;7.17;;
2001;SDS011;1003;48.002;7.788;2023-02-28T15:24:31;11.00;;;7.10;;
2001;SDS011;1003;48.002;7.788;2023-02-28T15:27:06;9.53;;;6.20;;
2001;SDS011;1003;48.002;7.788;2023-02-28T15:29:43;9.80;;;6.70;;
2001;SDS011;1003;48.002;7.788;2023-02-28T15:32:26;10.97;;;6.73;;
2001;SDS011;1003;48.002;7.788;2023-02-28T15:34:55;13.47;;;7.63;;
2001;SDS011;1003;48.002;7.788;2023-02-28T15:37:26;10.60;;;6.77;;
2001;SDS011;1003;48.002;7.788;2023-02-28T15:39:56;9.93;;;6.17;;
2001;SDS011;1003;48.002;7.788;2023-02-28T15:42:31;11.20;;;7.27;;
2001;SDS011;1003;48.002;7.788;2023-02-28T15:44:58;9.23;;;5.80;;
2001;SDS011;1003;48.002;7.788;2023-02-28T15:47:27;10.33;;;6.70;;
2001;SDS011;1003;48.002;7.788;2023-02-28T15:49:57;11.10;;;6.80;;
2001;SDS011;1003;48.002;7.788;2023-02-28T15:52:28;9.23;;;6.10;;
2001;SDS011;1003;48.002;7.788;2023-02-28T15:55:09;10.30;;;6.67;;
2001;SDS011;1003;48.002;7.788;2023-02-28T15:57:44;11.20;;;6.67;;
2001;SDS011;1003;48.002;7.788;2023-02-28T16:00:19;11.33;;;7.20;;
2001;SDS011;1003;48.002;7.788;2023-02-28T16:02:54;10.97;;;6.97;;
2001;SDS011;1003;48.002;7.788;2023-02-28T16:05:22;11.40;;;6.53;;
2001;SDS011;1003;48.002;7.788;2023-02-28T16:07:57;12.10;;;7.10;;
2001;SDS011;1003;48.002;7.788;2023-02-28T16:10:26;11.33;;;7.17;;
2001;SDS011;1003;48.002;7.788;2023-02-28T16:12:56;10.87;;;7.07;;
2001;SDS011;1003;48.002;7.788;2023-02-28T16:15:24;10.40;;;6.60;;
2001;SDS011;1003;48.002;7.788;2023-02-28T16:17:56;11.43;;;7.33;;
2001;SDS011;1003;48.002;7.788;2023-02-28T16:20:25;11.23;;;7.33;;
2001;SDS011;1003;48.002;7.788;2023-02-28T16:22:54;14.47;;;7.57;;
2001;SDS011;1003;48.002;7.788;2023-02-28T16:25:26;12.53;;;7.10;;
2001;SDS011;1003;48.002;7.788;2023-02-28T16:28:01;11.07;;;6.73;;
2001;SDS011;1003;48.002;7.788;2023-02-28T16:30:29;12.27;;;6.40;;
2001;SDS011;1003;48.002;7.788;2023-02-28T16:32:58;12.17;;;7.10;;
2001;SDS011;1003;48.002;7.788;2023-02-28T16:35:26;11.47;;;7.00;;
2001;SDS011;1003;48.002;7.788;2023-02-28T16:37:53;13.40;;;7.93;;
2001;SDS011;1003;48.002;7.788;2023-02-28T16:40:20;10.97;;;7.27;;